createdAt,value
2023-02-28T00:01:32.379Z,95665.66
2023-02-28T00:03:59.477Z,95663.97
2023-02-28T00:06:26.945Z,95664.19
2023-02-28T00:08:53.601Z,95666.97
2023-02-28T00:11:20.128Z,95650.84
2023-02-28T00:13:48.405Z,95651.03
2023-02-28T00:16:18.411Z,95649.88
2023-02-28T00:18:45.502Z,95645.34
2023-02-28T00:21:12.033Z,95643.00
2023-02-28T00:23:38.691Z,95646.56
2023-02-28T00:26:05.346Z,95649.88
2023-02-28T00:28:32.415Z,95647.41
2023-02-28T00:31:01.011Z,95645.84
2023-02-28T00:33:28.666Z,95647.97
2023-02-28T00:36:04.899Z,95647.41
2023-02-28T00:38:31.658Z,95639.94
2023-02-28T00:40:59.446Z,95645.16
2023-02-28T00:43:25.971Z,95634.47
2023-02-28T00:45:52.588Z,95636.69
2023-02-28T00:48:19.113Z,95637.28
2023-02-28T00:50:45.658Z,95644.81
2023-02-28T00:53:12.198Z,95639.94
2023-02-28T00:55:38.728Z,95639.09
2023-02-28T00:58:05.283Z,95644.44
2023-02-28T01:00:31.947Z,95640.75
2023-02-28T01:02:58.620Z,95639.00
2023-02-28T01:05:25.167Z,95643.41
2023-02-28T01:07:51.739Z,95639.94
2023-02-28T01:10:18.391Z,95637.72
2023-02-28T01:12:44.921Z,95625.00
2023-02-28T01:15:12.415Z,95635.50
2023-02-28T01:17:38.983Z,95630.63
2023-02-28T01:20:07.048Z,95623.69
2023-02-28T01:22:35.903Z,95620.88
2023-02-28T01:25:02.506Z,95626.06
2023-02-28T01:27:31.825Z,95622.03
2023-02-28T01:29:58.664Z,95625.28
2023-02-28T01:32:25.405Z,95615.34
2023-02-28T01:34:51.992Z,95614.66
2023-02-28T01:37:18.600Z,95600.81
2023-02-28T01:39:45.152Z,95612.88
2023-02-28T01:42:11.957Z,95619.22
2023-02-28T01:45:03.542Z,95611.69
2023-02-28T01:47:43.006Z,95606.06
2023-02-28T01:50:15.903Z,95603.50
2023-02-28T01:52:44.008Z,95599.41
2023-02-28T01:55:13.514Z,95602.13
2023-02-28T01:57:46.749Z,95597.84
2023-02-28T02:00:18.077Z,95602.56
2023-02-28T02:02:51.226Z,95601.59
2023-02-28T02:05:19.763Z,95599.69
2023-02-28T02:07:49.523Z,95591.94
2023-02-28T02:10:22.791Z,95603.63
2023-02-28T02:13:10.583Z,95598.44
2023-02-28T02:15:37.089Z,95600.13
2023-02-28T02:18:29.718Z,95603.19
2023-02-28T02:21:35.646Z,95596.28
2023-02-28T02:24:28.739Z,95596.53
2023-02-28T02:27:10.549Z,95592.94
2023-02-28T02:29:39.996Z,95595.59
2023-02-28T02:32:24.804Z,95608.03
2023-02-28T02:35:12.711Z,95597.06
2023-02-28T02:38:11.638Z,95590.56
2023-02-28T02:40:51.097Z,95591.31
2023-02-28T02:43:23.773Z,95587.41
2023-02-28T02:45:55.879Z,95587.41
2023-02-28T02:48:27.842Z,95578.78
2023-02-28T02:51:01.755Z,95578.50
2023-02-28T02:53:41.735Z,95582.94
2023-02-28T02:56:09.473Z,95586.47
2023-02-28T02:58:43.061Z,95586.91
2023-02-28T03:01:17.017Z,95570.72
2023-02-28T03:03:45.956Z,95579.66
2023-02-28T03:06:13.186Z,95581.00
2023-02-28T03:08:39.735Z,95579.03
2023-02-28T03:11:15.782Z,95583.66
2023-02-28T03:13:58.400Z,95580.59
2023-02-28T03:16:31.840Z,95582.09
2023-02-28T03:19:18.399Z,95584.50
2023-02-28T03:21:58.714Z,95593.41
2023-02-28T03:24:44.254Z,95591.28
2023-02-28T03:27:22.135Z,95589.91
2023-02-28T03:30:02.823Z,95581.00
2023-02-28T03:32:55.831Z,95582.47
2023-02-28T03:35:26.036Z,95590.66
2023-02-28T03:38:01.611Z,95587.34
2023-02-28T03:40:33.869Z,95588.13
2023-02-28T03:43:10.680Z,95589.91
2023-02-28T03:45:40.557Z,95586.81
2023-02-28T03:48:18.076Z,95586.75
2023-02-28T03:50:48.585Z,95585.25
2023-02-28T03:53:26.495Z,95597.91
2023-02-28T03:56:08.720Z,95593.81
2023-02-28T03:58:55.284Z,95596.63
2023-02-28T04:01:45.962Z,95595.69
2023-02-28T04:04:13.919Z,95598.69
2023-02-28T04:06:41.226Z,95598.38
2023-02-28T04:11:42.698Z,95613.53
2023-02-28T04:14:10.856Z,95623.00
2023-02-28T04:16:41.836Z,95626.97
2023-02-28T04:19:09.841Z,95631.38
2023-02-28T04:21:40.065Z,95631.19
2023-02-28T04:24:07.833Z,95636.53
2023-02-28T04:26:37.184Z,95640.81
2023-02-28T04:29:06.131Z,95634.88
2023-02-28T04:31:33.239Z,95632.91
2023-02-28T04:34:00.560Z,95624.72
2023-02-28T04:36:27.205Z,95622.81
2023-02-28T04:38:54.697Z,95618.50
2023-02-28T04:41:22.200Z,95618.50
2023-02-28T04:43:48.712Z,95622.44
2023-02-28T04:46:15.343Z,95626.69
2023-02-28T04:48:41.977Z,95630.72
2023-02-28T04:51:12.541Z,95625.31
2023-02-28T04:53:41.203Z,95629.84
2023-02-28T04:56:08.606Z,95641.06
2023-02-28T04:58:35.709Z,95633.41
2023-02-28T05:01:15.870Z,95637.81
2023-02-28T05:03:43.662Z,95637.56
2023-02-28T05:06:12.203Z,95640.38
2023-02-28T05:08:38.927Z,95644.38
2023-02-28T05:11:09.482Z,95640.06
2023-02-28T05:13:36.696Z,95645.91
2023-02-28T05:16:03.244Z,95641.41
2023-02-28T05:18:29.893Z,95648.50
2023-02-28T05:20:56.543Z,95642.63
2023-02-28T05:23:24.381Z,95650.00
2023-02-28T05:25:50.956Z,95647.22
2023-02-28T05:28:17.502Z,95653.47
2023-02-28T05:30:44.018Z,95651.16
2023-02-28T05:33:12.474Z,95652.53
2023-02-28T05:35:43.726Z,95646.31
2023-02-28T05:38:10.305Z,95655.78
2023-02-28T05:40:40.031Z,95653.50
2023-02-28T05:43:06.647Z,95651.06
2023-02-28T05:45:33.276Z,95654.97
2023-02-28T05:47:59.847Z,95655.50
2023-02-28T05:50:26.411Z,95647.22
2023-02-28T05:52:53.359Z,95649.16
2023-02-28T05:55:19.945Z,95648.44
2023-02-28T05:57:46.495Z,95651.38
2023-02-28T06:00:15.885Z,95662.66
2023-02-28T06:02:42.426Z,95659.06
2023-02-28T06:05:15.469Z,95670.44
2023-02-28T06:07:42.012Z,95671.63
2023-02-28T06:10:09.399Z,95674.94
2023-02-28T06:12:35.927Z,95670.81
2023-02-28T06:15:02.480Z,95681.22
2023-02-28T06:17:29.057Z,95682.75
2023-02-28T06:19:55.630Z,95679.38
2023-02-28T06:22:22.341Z,95681.88
2023-02-28T06:24:48.904Z,95679.19
2023-02-28T06:27:15.545Z,95671.03
2023-02-28T06:29:42.108Z,95676.25
2023-02-28T06:32:08.741Z,95684.00
2023-02-28T06:34:35.369Z,95691.00
2023-02-28T06:37:03.157Z,95684.19
2023-02-28T06:39:30.884Z,95683.53
2023-02-28T06:41:58.579Z,95698.22
2023-02-28T06:44:25.810Z,95710.59
2023-02-28T06:46:52.395Z,95706.28
2023-02-28T06:49:19.178Z,95709.84
2023-02-28T06:51:46.313Z,95712.72
2023-02-28T06:54:14.165Z,95705.16
2023-02-28T06:56:41.124Z,95720.00
2023-02-28T06:59:07.648Z,95719.69
2023-02-28T07:01:34.316Z,95713.50
2023-02-28T07:04:01.720Z,95715.56
2023-02-28T07:06:28.844Z,95713.88
2023-02-28T07:08:55.925Z,95715.16
2023-02-28T07:11:23.977Z,95722.72
2023-02-28T07:13:51.869Z,95713.16
2023-02-28T07:16:18.766Z,95724.22
2023-02-28T07:18:45.566Z,95723.94
2023-02-28T07:21:12.274Z,95726.78
2023-02-28T07:23:40.042Z,95730.25
2023-02-28T07:26:08.008Z,95726.28
2023-02-28T07:28:34.606Z,95727.09
2023-02-28T07:31:08.366Z,95734.47
2023-02-28T07:33:35.077Z,95725.88
2023-02-28T07:36:06.935Z,95727.31
2023-02-28T07:38:38.163Z,95723.59
2023-02-28T07:41:05.286Z,95726.47
2023-02-28T07:43:33.067Z,95719.94
2023-02-28T07:46:10.673Z,95724.66
2023-02-28T07:48:37.698Z,95723.09
2023-02-28T07:51:04.498Z,95723.47
2023-02-28T07:53:31.479Z,95720.19
2023-02-28T07:55:59.528Z,95721.31
2023-02-28T07:58:27.326Z,95717.75
2023-02-28T08:00:54.289Z,95727.44
2023-02-28T08:03:22.495Z,95724.81
2023-02-28T08:05:49.497Z,95724.72
2023-02-28T08:08:17.644Z,95727.63
2023-02-28T08:10:44.703Z,95730.63
2023-02-28T08:13:11.257Z,95732.56
2023-02-28T08:15:37.768Z,95734.06
2023-02-28T08:18:04.407Z,95733.69
2023-02-28T08:20:31.675Z,95743.44
2023-02-28T08:22:58.484Z,95744.41
2023-02-28T08:25:25.151Z,95749.81
2023-02-28T08:27:53.231Z,95745.78
2023-02-28T08:30:19.967Z,95744.56
2023-02-28T08:32:46.721Z,95743.81
2023-02-28T08:35:13.468Z,95743.13
2023-02-28T08:37:40.104Z,95738.66
2023-02-28T08:40:07.441Z,95755.09
2023-02-28T08:42:34.083Z,95751.50
2023-02-28T08:45:00.589Z,95757.19
2023-02-28T08:47:27.472Z,95752.22
2023-02-28T08:49:54.036Z,95755.16
2023-02-28T08:52:20.530Z,95748.50
2023-02-28T08:54:47.730Z,95748.53
2023-02-28T08:57:14.516Z,95755.84
2023-02-28T08:59:41.122Z,95760.31
2023-02-28T09:02:09.835Z,95758.44
2023-02-28T09:04:36.617Z,95762.84
2023-02-28T09:07:03.175Z,95765.22
2023-02-28T09:09:29.811Z,95759.44
2023-02-28T09:11:57.423Z,95760.16
2023-02-28T09:14:24.344Z,95755.38
2023-02-28T09:16:51.366Z,95759.97
2023-02-28T09:19:17.999Z,95774.91
2023-02-28T09:21:44.543Z,95773.41
2023-02-28T09:24:13.103Z,95770.69
2023-02-28T09:26:43.151Z,95771.47
2023-02-28T09:29:15.575Z,95774.34
2023-02-28T09:31:42.160Z,95779.94
2023-02-28T09:34:08.812Z,95788.72
2023-02-28T09:36:45.093Z,95780.59
2023-02-28T09:39:16.211Z,95784.66
2023-02-28T09:41:51.178Z,95788.38
2023-02-28T09:44:44.816Z,95789.16
2023-02-28T09:47:14.400Z,95793.59
2023-02-28T09:49:47.898Z,95803.63
2023-02-28T09:52:26.686Z,95800.72
2023-02-28T09:54:53.269Z,95804.38
2023-02-28T09:57:40.303Z,95799.06
2023-02-28T10:00:09.422Z,95804.38
2023-02-28T10:03:25.511Z,95808.16
2023-02-28T10:06:16.984Z,95810.56
2023-02-28T10:09:02.422Z,95808.47
2023-02-28T10:11:32.399Z,95806.41
2023-02-28T10:14:06.738Z,95813.06
2023-02-28T10:16:38.085Z,95814.75
2023-02-28T10:19:11.134Z,95812.03
2023-02-28T10:21:48.518Z,95814.28
2023-02-28T10:24:20.003Z,95816.16
2023-02-28T10:26:48.958Z,95818.47
2023-02-28T10:29:16.555Z,95829.25
2023-02-28T10:31:43.709Z,95820.97
2023-02-28T10:34:13.462Z,95820.63
2023-02-28T10:36:40.800Z,95828.47
2023-02-28T10:39:42.738Z,95831.78
2023-02-28T10:42:30.377Z,95839.78
2023-02-28T10:45:27.440Z,95836.41
2023-02-28T10:47:58.013Z,95833.56
2023-02-28T10:50:45.489Z,95828.88
2023-02-28T10:53:27.034Z,95834.81
2023-02-28T10:56:10.004Z,95836.44
2023-02-28T10:59:02.454Z,95837.19
2023-02-28T11:01:47.135Z,95836.06
2023-02-28T11:04:33.509Z,95842.88
2023-02-28T11:07:23.135Z,95839.22
2023-02-28T11:09:53.713Z,95840.47
2023-02-28T11:12:26.733Z,95840.34
2023-02-28T11:14:57.784Z,95840.53
2023-02-28T11:17:27.705Z,95838.81
2023-02-28T11:19:58.108Z,95839.06
2023-02-28T11:22:32.032Z,95828.53
2023-02-28T11:25:00.329Z,95824.09
2023-02-28T11:27:47.855Z,95822.53
2023-02-28T11:30:28.609Z,95818.56
2023-02-28T11:32:55.174Z,95820.91
2023-02-28T11:35:24.660Z,95822.63
2023-02-28T11:37:51.524Z,95817.78
2023-02-28T11:40:56.460Z,95822.09
2023-02-28T11:43:44.380Z,95824.81
2023-02-28T11:46:51.447Z,95818.44
2023-02-28T11:49:46.554Z,95813.75
2023-02-28T11:52:47.546Z,95799.16
2023-02-28T11:55:53.413Z,95799.44
2023-02-28T11:58:51.668Z,95804.16
2023-02-28T12:01:32.929Z,95801.78
2023-02-28T12:04:22.560Z,95799.56
2023-02-28T12:06:58.479Z,95798.59
2023-02-28T12:09:52.956Z,95796.00
2023-02-28T12:12:28.393Z,95793.84
2023-02-28T12:14:54.883Z,95797.72
2023-02-28T12:17:27.092Z,95787.97
2023-02-28T12:19:56.381Z,95788.53
2023-02-28T12:22:33.108Z,95788.59
2023-02-28T12:25:14.961Z,95789.59
2023-02-28T12:27:46.793Z,95781.03
2023-02-28T12:30:14.517Z,95780.09
2023-02-28T12:32:49.560Z,95774.47
2023-02-28T12:35:22.852Z,95768.78
2023-02-28T12:38:18.641Z,95755.63
2023-02-28T12:41:10.528Z,95758.56
2023-02-28T12:43:45.560Z,95758.75
2023-02-28T12:46:18.984Z,95750.34
2023-02-28T12:48:57.959Z,95744.28
2023-02-28T12:51:27.810Z,95742.19
2023-02-28T12:54:04.595Z,95747.34
2023-02-28T12:56:43.300Z,95745.69
2023-02-28T12:59:14.433Z,95746.97
2023-02-28T13:02:11.610Z,95740.13
2023-02-28T13:04:50.151Z,95748.00
2023-02-28T13:07:35.591Z,95748.78
2023-02-28T13:10:05.440Z,95755.84
2023-02-28T13:12:31.984Z,95759.25
2023-02-28T13:15:22.878Z,95758.09
2023-02-28T13:17:52.384Z,95748.19
2023-02-28T13:20:21.954Z,95759.41
2023-02-28T13:22:51.564Z,95762.66
2023-02-28T13:25:24.267Z,95757.31
2023-02-28T13:28:01.956Z,95765.16
2023-02-28T13:30:53.626Z,95758.63
2023-02-28T13:33:25.429Z,95761.47
2023-02-28T13:36:14.174Z,95760.38
2023-02-28T13:39:01.358Z,95763.69
2023-02-28T13:41:37.124Z,95763.38
2023-02-28T13:44:06.917Z,95761.88
2023-02-28T13:46:36.870Z,95760.16
2023-02-28T13:49:34.827Z,95755.25
2023-02-28T13:52:07.473Z,95772.25
2023-02-28T13:55:17.085Z,95762.63
2023-02-28T13:57:59.009Z,95773.41
2023-02-28T14:00:41.356Z,95774.22
2023-02-28T14:03:20.285Z,95774.25
2023-02-28T14:05:47.098Z,95771.59
2023-02-28T14:08:19.159Z,95777.19
2023-02-28T14:10:49.138Z,95766.94
2023-02-28T14:13:46.056Z,95766.81
2023-02-28T14:16:21.185Z,95762.25
2023-02-28T14:19:02.845Z,95762.91
2023-02-28T14:21:35.031Z,95765.78
2023-02-28T14:24:14.280Z,95755.22
2023-02-28T14:27:09.041Z,95762.53
2023-02-28T14:29:50.785Z,95752.78
2023-02-28T14:32:33.565Z,95755.72
2023-02-28T14:35:26.154Z,95761.19
2023-02-28T14:37:55.214Z,95754.84
2023-02-28T14:40:34.446Z,95750.16
2023-02-28T14:43:05.112Z,95745.38
2023-02-28T14:45:34.704Z,95749.28
2023-02-28T14:48:03.545Z,95741.16
2023-02-28T14:50:37.814Z,95747.38
2023-02-28T14:53:16.453Z,95746.34
2023-02-28T14:55:47.063Z,95754.06
2023-02-28T14:58:40.999Z,95750.34
2023-02-28T15:01:11.304Z,95750.34
2023-02-28T15:03:40.255Z,95745.22
2023-02-28T15:06:14.279Z,95752.13
2023-02-28T15:08:40.864Z,95748.25
2023-02-28T15:11:23.114Z,95753.31
2023-02-28T15:13:56.392Z,95748.19
2023-02-28T15:16:26.603Z,95745.31
2023-02-28T15:18:58.342Z,95746.97
2023-02-28T15:21:29.965Z,95753.56
2023-02-28T15:24:04.946Z,95753.03
2023-02-28T15:26:35.463Z,95753.50
2023-02-28T15:29:16.335Z,95751.56
2023-02-28T15:31:57.539Z,95754.50
2023-02-28T15:34:43.388Z,95749.50
2023-02-28T15:37:32.209Z,95763.22
2023-02-28T15:40:11.295Z,95756.25
2023-02-28T15:42:37.857Z,95760.47
2023-02-28T15:45:05.165Z,95755.22
2023-02-28T15:47:32.213Z,95753.84
2023-02-28T15:50:03.015Z,95772.16
2023-02-28T15:52:34.375Z,95769.66
2023-02-28T15:55:18.640Z,95769.94
2023-02-28T15:57:46.957Z,95771.50
2023-02-28T16:00:16.834Z,95776.75
2023-02-28T16:02:45.460Z,95777.31
2023-02-28T16:05:12.079Z,95773.56
2023-02-28T16:07:40.539Z,95775.75
2023-02-28T16:10:10.000Z,95778.59
2023-02-28T16:12:38.537Z,95772.44
2023-02-28T16:15:29.824Z,95770.44
2023-02-28T16:17:57.916Z,95780.53
2023-02-28T16:20:27.612Z,95780.47
2023-02-28T16:22:55.451Z,95776.59
2023-02-28T16:25:27.703Z,95776.53
2023-02-28T16:27:55.355Z,95783.81
2023-02-28T16:30:25.296Z,95779.06
2023-02-28T16:32:53.373Z,95780.31
2023-02-28T16:35:20.763Z,95787.63
2023-02-28T16:37:47.340Z,95789.41
2023-02-28T16:40:21.822Z,95788.44
2023-02-28T16:42:51.600Z,95790.50
2023-02-28T16:45:23.883Z,95789.31
2023-02-28T16:47:50.566Z,95794.19
2023-02-28T16:50:29.005Z,95803.03
2023-02-28T16:52:55.941Z,95799.72
2023-02-28T16:55:24.585Z,95806.38
2023-02-28T16:57:54.269Z,95794.50
2023-02-28T17:00:21.075Z,95794.75
2023-02-28T17:02:47.885Z,95789.94
2023-02-28T17:05:16.092Z,95801.50
2023-02-28T17:07:43.318Z,95807.81
2023-02-28T17:10:30.070Z,95803.34
2023-02-28T17:13:06.127Z,95810.16
2023-02-28T17:15:41.670Z,95812.13
2023-02-28T17:18:19.771Z,95812.38
2023-02-28T17:20:47.235Z,95822.59
2023-02-28T17:23:13.878Z,95825.97
2023-02-28T17:25:40.436Z,95831.44
2023-02-28T17:28:07.005Z,95824.06
2023-02-28T17:30:35.365Z,95837.72
2023-02-28T17:33:02.148Z,95840.81
2023-02-28T17:35:29.260Z,95833.13
2023-02-28T17:37:55.941Z,95832.66
2023-02-28T17:40:24.255Z,95843.81
2023-02-28T17:42:53.099Z,95844.03
2023-02-28T17:45:20.296Z,95845.72
2023-02-28T17:47:49.424Z,95834.34
2023-02-28T17:50:18.910Z,95842.28
2023-02-28T17:52:45.541Z,95841.13
2023-02-28T17:55:12.776Z,95837.81
2023-02-28T17:57:39.826Z,95840.53
2023-02-28T18:00:07.697Z,95836.13
2023-02-28T18:02:38.082Z,95848.00
2023-02-28T18:05:05.391Z,95836.97
2023-02-28T18:07:32.142Z,95849.91
2023-02-28T18:09:58.685Z,95839.09
2023-02-28T18:12:25.214Z,95836.03
2023-02-28T18:14:51.783Z,95839.09
2023-02-28T18:17:18.282Z,95841.34
2023-02-28T18:19:44.787Z,95843.47
2023-02-28T18:22:11.623Z,95843.59
2023-02-28T18:24:38.146Z,95844.31
2023-02-28T18:27:04.687Z,95840.63
2023-02-28T18:29:32.567Z,95840.66
2023-02-28T18:31:59.549Z,95839.94
2023-02-28T18:34:26.198Z,95834.22
2023-02-28T18:36:53.386Z,95828.91
2023-02-28T18:39:20.193Z,95839.34
2023-02-28T18:41:47.001Z,95838.84
2023-02-28T18:44:19.812Z,95841.47
2023-02-28T18:46:47.546Z,95835.66
2023-02-28T18:49:14.260Z,95838.50
2023-02-28T18:51:44.981Z,95829.75
2023-02-28T18:54:15.926Z,95833.44
2023-02-28T18:56:42.682Z,95828.22
2023-02-28T18:59:09.405Z,95827.16
2023-02-28T19:01:36.340Z,95830.97
2023-02-28T19:04:04.248Z,95826.69
2023-02-28T19:06:32.354Z,95825.00
2023-02-28T19:09:00.741Z,95830.34
2023-02-28T19:11:28.098Z,95829.63
2023-02-28T19:13:54.865Z,95829.16
2023-02-28T19:16:22.372Z,95824.88
2023-02-28T19:18:49.083Z,95829.84
2023-02-28T19:21:17.332Z,95830.31
2023-02-28T19:23:44.356Z,95830.09
2023-02-28T19:26:16.369Z,95828.69
2023-02-28T19:28:43.726Z,95831.16
2023-02-28T19:31:22.561Z,95830.59
2023-02-28T19:33:50.679Z,95833.06
2023-02-28T19:36:17.300Z,95822.63
2023-02-28T19:38:46.902Z,95822.88
2023-02-28T19:41:15.316Z,95838.41
2023-02-28T19:43:41.959Z,95834.00
2023-02-28T19:46:10.348Z,95829.84
2023-02-28T19:48:37.160Z,95830.59
2023-02-28T19:51:07.041Z,95831.28
2023-02-28T19:53:35.345Z,95829.38
2023-02-28T19:56:04.086Z,95818.50
2023-02-28T19:58:31.298Z,95824.31
2023-02-28T20:00:58.106Z,95818.59
2023-02-28T20:03:24.723Z,95813.38
2023-02-28T20:06:02.899Z,95810.06
2023-02-28T20:08:29.775Z,95807.44
2023-02-28T20:11:02.517Z,95805.31
2023-02-28T20:13:29.064Z,95812.81
2023-02-28T20:15:58.146Z,95803.25
2023-02-28T20:18:24.656Z,95805.16
2023-02-28T20:20:51.310Z,95808.22
2023-02-28T20:23:17.832Z,95806.88
2023-02-28T20:25:44.379Z,95802.19
2023-02-28T20:28:10.925Z,95802.19
2023-02-28T20:30:39.546Z,95805.84
2023-02-28T20:33:06.148Z,95809.66
2023-02-28T20:35:33.656Z,95804.00
2023-02-28T20:38:00.219Z,95799.41
2023-02-28T20:40:26.732Z,95808.22
2023-02-28T20:42:55.029Z,95809.38
2023-02-28T20:45:21.654Z,95806.31
2023-02-28T20:47:48.472Z,95804.88
2023-02-28T20:50:17.035Z,95809.59
2023-02-28T20:52:46.959Z,95802.84
2023-02-28T20:55:13.824Z,95795.97
2023-02-28T20:57:40.387Z,95809.84
2023-02-28T21:00:19.262Z,95798.47
2023-02-28T21:02:45.982Z,95806.72
2023-02-28T21:05:12.546Z,95811.06
2023-02-28T21:07:39.181Z,95805.84
2023-02-28T21:10:07.479Z,95798.63
2023-02-28T21:12:35.245Z,95805.59
2023-02-28T21:15:01.760Z,95816.88
2023-02-28T21:17:29.111Z,95810.44
2023-02-28T21:19:55.636Z,95803.56
2023-02-28T21:22:22.172Z,95802.97
2023-02-28T21:24:48.689Z,95807.38
2023-02-28T21:27:15.614Z,95803.09
2023-02-28T21:29:42.178Z,95793.28
2023-02-28T21:32:08.815Z,95803.59
2023-02-28T21:34:35.375Z,95795.88
2023-02-28T21:37:02.360Z,95793.97
2023-02-28T21:39:30.031Z,95795.19
2023-02-28T21:42:02.080Z,95793.84
2023-02-28T21:44:29.888Z,95788.59
2023-02-28T21:47:00.979Z,95786.63
2023-02-28T21:49:28.466Z,95785.31
2023-02-28T21:51:55.055Z,95788.31
2023-02-28T21:54:21.602Z,95787.84
2023-02-28T21:56:50.516Z,95786.56
2023-02-28T21:59:17.341Z,95787.00
2023-02-28T22:01:44.543Z,95781.56
2023-02-28T22:04:20.913Z,95784.84
2023-02-28T22:06:50.179Z,95784.34
2023-02-28T22:09:16.888Z,95794.75
2023-02-28T22:11:43.479Z,95780.94
2023-02-28T22:14:12.409Z,95782.63
2023-02-28T22:16:50.745Z,95790.69
2023-02-28T22:19:19.698Z,95784.53
2023-02-28T22:21:47.325Z,95788.31
2023-02-28T22:24:14.644Z,95792.22
2023-02-28T22:26:41.390Z,95782.13
2023-02-28T22:29:07.948Z,95789.97
2023-02-28T22:31:35.863Z,95778.22
2023-02-28T22:34:08.640Z,95779.66
2023-02-28T22:36:35.671Z,95787.63
2023-02-28T22:39:02.824Z,95783.34
2023-02-28T22:41:29.904Z,95786.78
2023-02-28T22:43:59.773Z,95785.25
2023-02-28T22:46:28.022Z,95789.75
2023-02-28T22:48:54.808Z,95797.31
2023-02-28T22:51:25.279Z,95790.06
2023-02-28T22:53:53.522Z,95781.78
2023-02-28T22:56:22.783Z,95780.13
2023-02-28T22:58:54.361Z,95784.03
2023-02-28T23:01:22.601Z,95780.34
2023-02-28T23:03:49.773Z,95776.94
2023-02-28T23:06:33.002Z,95781.25
2023-02-28T23:09:04.671Z,95780.63
2023-02-28T23:11:38.129Z,95777.53
2023-02-28T23:14:05.309Z,95773.22
2023-02-28T23:16:39.580Z,95774.81
2023-02-28T23:19:13.760Z,95777.41
2023-02-28T23:21:40.594Z,95775.50
2023-02-28T23:24:11.853Z,95771.22
2023-02-28T23:26:47.383Z,95769.38
2023-02-28T23:29:15.523Z,95786.78
2023-02-28T23:31:42.182Z,95775.84
2023-02-28T23:34:09.254Z,95785.09
2023-02-28T23:36:37.050Z,95775.16
2023-02-28T23:39:03.838Z,95772.91
2023-02-28T23:41:30.383Z,95775.28
2023-02-28T23:43:57.016Z,95773.28
2023-02-28T23:46:23.775Z,95772.44
2023-02-28T23:48:50.303Z,95778.72
2023-02-28T23:51:19.229Z,95777.19
2023-02-28T23:53:50.214Z,95766.88
2023-02-28T23:56:20.667Z,95775.06
2023-02-28T23:58:48.173Z,95772.22
